sensor_id;sensor_type;location;lat;lon;timestamp;pressure;altitude;pressure_sealevel;temperature
47484;BMP280;54076;50.322;18.650;2023-08-21T00:03:30;163393.59;;;17.39
47484;BMP280;54076;50.322;18.650;2023-08-21T00:08:31;163250.84;;;17.31
47484;BMP280;54076;50.322;18.650;2023-08-21T00:13:31;163089.80;;;17.21
47484;BMP280;54076;50.322;18.650;2023-08-21T00:18:32;162746.41;;;17.00
47484;BMP280;54076;50.322;18.650;2023-08-21T00:23:33;162888.84;;;17.09
47484;BMP280;54076;50.322;18.650;2023-08-21T00:28:34;162956.33;;;17.13
47484;BMP280;54076;50.322;18.650;2023-08-21T00:33:35;163207.98;;;17.28
47484;BMP280;54076;50.322;18.650;2023-08-21T00:38:37;162633.42;;;16.94
47484;BMP280;54076;50.322;18.650;2023-08-21T00:43:39;162536.03;;;16.88
47484;BMP280;54076;50.322;18.650;2023-08-21T00:48:40;162729.02;;;16.99
47484;BMP280;54076;50.322;18.650;2023-08-21T00:53:41;162467.84;;;16.83
47484;BMP280;54076;50.322;18.650;2023-08-21T00:58:42;162276.97;;;16.73
47484;BMP280;54076;50.322;18.650;2023-08-21T01:03:43;162261.03;;;16.72
47484;BMP280;54076;50.322;18.650;2023-08-21T01:09:00;162246.91;;;16.72
47484;BMP280;54076;50.322;18.650;2023-08-21T01:14:29;162220.22;;;16.70
47484;BMP280;54076;50.322;18.650;2023-08-21T01:19:38;162347.25;;;16.77
47484;BMP280;54076;50.322;18.650;2023-08-21T01:24:39;162324.88;;;16.75
47484;BMP280;54076;50.322;18.650;2023-08-21T01:29:40;162291.64;;;16.74
47484;BMP280;54076;50.322;18.650;2023-08-21T01:34:41;162483.45;;;16.84
47484;BMP280;54076;50.322;18.650;2023-08-21T01:39:43;162312.17;;;16.75
47484;BMP280;54076;50.322;18.650;2023-08-21T01:44:44;162341.09;;;16.77
47484;BMP280;54076;50.322;18.650;2023-08-21T01:49:46;162240.34;;;16.71
47484;BMP280;54076;50.322;18.650;2023-08-21T01:54:50;161918.05;;;16.52
47484;BMP280;54076;50.322;18.650;2023-08-21T01:59:51;161975.59;;;16.56
47484;BMP280;54076;50.322;18.650;2023-08-21T02:04:52;162036.63;;;16.59
47484;BMP280;54076;50.322;18.650;2023-08-21T02:09:53;161684.53;;;16.38
47484;BMP280;54076;50.322;18.650;2023-08-21T02:14:54;161648.88;;;16.36
47484;BMP280;54076;50.322;18.650;2023-08-21T02:19:54;161592.16;;;16.33
47484;BMP280;54076;50.322;18.650;2023-08-21T02:24:55;161285.03;;;16.15
47484;BMP280;54076;50.322;18.650;2023-08-21T02:29:56;161264.80;;;16.13
47484;BMP280;54076;50.322;18.650;2023-08-21T02:34:57;161530.78;;;16.29
47484;BMP280;54076;50.322;18.650;2023-08-21T02:39:58;161328.23;;;16.16
47484;BMP280;54076;50.322;18.650;2023-08-21T02:45:00;161445.23;;;16.23
47484;BMP280;54076;50.322;18.650;2023-08-21T02:50:06;160946.13;;;15.94
47484;BMP280;54076;50.322;18.650;2023-08-21T02:55:08;161089.77;;;16.03
47484;BMP280;54076;50.322;18.650;2023-08-21T03:00:09;161712.23;;;16.39
47484;BMP280;54076;50.322;18.650;2023-08-21T03:05:11;162122.16;;;16.64
47484;BMP280;54076;50.322;18.650;2023-08-21T03:10:12;161854.80;;;16.48
47484;BMP280;54076;50.322;18.650;2023-08-21T03:15:12;161912.05;;;16.51
47484;BMP280;54076;50.322;18.650;2023-08-21T03:20:13;162055.95;;;16.60
47484;BMP280;54076;50.322;18.650;2023-08-21T03:25:14;162042.25;;;16.58
47484;BMP280;54076;50.322;18.650;2023-08-21T03:30:16;161940.05;;;16.52
47484;BMP280;54076;50.322;18.650;2023-08-21T03:35:17;162153.92;;;16.65
47484;BMP280;54076;50.322;18.650;2023-08-21T03:40:18;162092.20;;;16.61
47484;BMP280;54076;50.322;18.650;2023-08-21T03:45:19;162182.97;;;16.65
47484;BMP280;54076;50.322;18.650;2023-08-21T03:50:19;162275.30;;;16.71
47484;BMP280;54076;50.322;18.650;2023-08-21T03:55:20;161921.11;;;16.50
47484;BMP280;54076;50.322;18.650;2023-08-21T04:00:21;161974.58;;;16.52
47484;BMP280;54076;50.322;18.650;2023-08-21T04:05:22;162043.70;;;16.55
47484;BMP280;54076;50.322;18.650;2023-08-21T04:10:23;162208.09;;;16.65
47484;BMP280;54076;50.322;18.650;2023-08-21T04:15:25;162425.63;;;16.77
47484;BMP280;54076;50.322;18.650;2023-08-21T04:20:26;162412.92;;;16.76
47484;BMP280;54076;50.322;18.650;2023-08-21T04:25:27;162645.75;;;16.89
47484;BMP280;54076;50.322;18.650;2023-08-21T04:30:28;162579.13;;;16.85
47484;BMP280;54076;50.322;18.650;2023-08-21T04:35:29;162668.25;;;16.89
47484;BMP280;54076;50.322;18.650;2023-08-21T04:40:30;162868.97;;;17.01
47484;BMP280;54076;50.322;18.650;2023-08-21T04:45:30;162881.67;;;17.01
47484;BMP280;54076;50.322;18.650;2023-08-21T04:50:31;163288.95;;;17.24
47484;BMP280;54076;50.322;18.650;2023-08-21T04:55:32;163556.91;;;17.39
47484;BMP280;54076;50.322;18.650;2023-08-21T05:00:33;163970.75;;;17.63
47484;BMP280;54076;50.322;18.650;2023-08-21T05:05:35;164472.72;;;17.93
47484;BMP280;54076;50.322;18.650;2023-08-21T05:10:36;164402.83;;;17.90
47484;BMP280;54076;50.322;18.650;2023-08-21T05:15:37;164472.59;;;17.93
47484;BMP280;54076;50.322;18.650;2023-08-21T05:20:38;164447.06;;;17.90
47484;BMP280;54076;50.322;18.650;2023-08-21T05:25:39;164637.30;;;18.03
47484;BMP280;54076;50.322;18.650;2023-08-21T05:30:40;164732.22;;;18.09
47484;BMP280;54076;50.322;18.650;2023-08-21T05:35:41;164558.89;;;18.00
47484;BMP280;54076;50.322;18.650;2023-08-21T05:40:42;164581.80;;;18.04
47484;BMP280;54076;50.322;18.650;2023-08-21T05:45:46;164498.72;;;18.02
47484;BMP280;54076;50.322;18.650;2023-08-21T05:50:52;164183.34;;;17.81
47484;BMP280;54076;50.322;18.650;2023-08-21T05:55:54;163993.38;;;17.70
47484;BMP280;54076;50.322;18.650;2023-08-21T06:00:55;163676.13;;;17.49
47484;BMP280;54076;50.322;18.650;2023-08-21T06:05:56;163540.78;;;17.41
47484;BMP280;54076;50.322;18.650;2023-08-21T06:10:57;163422.78;;;17.32
47484;BMP280;54076;50.322;18.650;2023-08-21T06:15:57;163866.70;;;17.56
47484;BMP280;54076;50.322;18.650;2023-08-21T06:20:58;164215.67;;;17.77
47484;BMP280;54076;50.322;18.650;2023-08-21T06:25:59;164011.91;;;17.64
47484;BMP280;54076;50.322;18.650;2023-08-21T06:31:00;163967.45;;;17.62
47484;BMP280;54076;50.322;18.650;2023-08-21T06:36:07;164361.47;;;17.88
47484;BMP280;54076;50.322;18.650;2023-08-21T06:41:08;164646.53;;;18.05
47484;BMP280;54076;50.322;18.650;2023-08-21T06:46:09;164679.25;;;18.06
47484;BMP280;54076;50.322;18.650;2023-08-21T06:51:11;164815.98;;;18.16
47484;BMP280;54076;50.322;18.650;2023-08-21T06:56:12;164864.38;;;18.20
47484;BMP280;54076;50.322;18.650;2023-08-21T07:01:13;165141.22;;;18.38
47484;BMP280;54076;50.322;18.650;2023-08-21T07:06:14;165002.58;;;18.28
47484;BMP280;54076;50.322;18.650;2023-08-21T07:11:15;165374.38;;;18.52
47484;BMP280;54076;50.322;18.650;2023-08-21T07:16:17;165958.84;;;18.89
47484;BMP280;54076;50.322;18.650;2023-08-21T07:21:18;166203.66;;;19.05
47484;BMP280;54076;50.322;18.650;2023-08-21T07:26:19;166497.16;;;19.26
47484;BMP280;54076;50.322;18.650;2023-08-21T07:31:20;166439.39;;;19.22
47484;BMP280;54076;50.322;18.650;2023-08-21T07:36:21;166859.78;;;19.47
47484;BMP280;54076;50.322;18.650;2023-08-21T07:41:22;167096.58;;;19.62
47484;BMP280;54076;50.322;18.650;2023-08-21T07:46:23;167057.09;;;19.58
47484;BMP280;54076;50.322;18.650;2023-08-21T07:51:24;167295.73;;;19.76
47484;BMP280;54076;50.322;18.650;2023-08-21T07:56:25;167453.05;;;19.94
47484;BMP280;54076;50.322;18.650;2023-08-21T08:01:26;167545.09;;;20.05
47484;BMP280;54076;50.322;18.650;2023-08-21T08:06:27;167585.13;;;20.10
47484;BMP280;54076;50.322;18.650;2023-08-21T08:11:28;167589.28;;;20.11
47484;BMP280;54076;50.322;18.650;2023-08-21T08:16:29;167615.08;;;20.14
47484;BMP280;54076;50.322;18.650;2023-08-21T08:21:29;167567.39;;;20.04
47484;BMP280;54076;50.322;18.650;2023-08-21T08:26:30;168031.42;;;20.50
47484;BMP280;54076;50.322;18.650;2023-08-21T08:31:31;168031.84;;;20.51
47484;BMP280;54076;50.322;18.650;2023-08-21T08:36:32;167966.30;;;20.44
47484;BMP280;54076;50.322;18.650;2023-08-21T08:41:55;167936.80;;;20.44
47484;BMP280;54076;50.322;18.650;2023-08-21T08:46:57;168122.84;;;20.58
47484;BMP280;54076;50.322;18.650;2023-08-21T08:51:59;168295.63;;;20.72
47484;BMP280;54076;50.322;18.650;2023-08-21T08:57:00;168605.69;;;20.95
47484;BMP280;54076;50.322;18.650;2023-08-21T09:02:01;168768.75;;;21.08
47484;BMP280;54076;50.322;18.650;2023-08-21T09:07:10;169006.95;;;21.25
47484;BMP280;54076;50.322;18.650;2023-08-21T09:12:14;169233.14;;;21.44
47484;BMP280;54076;50.322;18.650;2023-08-21T09:17:15;169512.84;;;21.66
47484;BMP280;54076;50.322;18.650;2023-08-21T09:22:18;169887.48;;;21.95
47484;BMP280;54076;50.322;18.650;2023-08-21T09:27:19;170530.69;;;22.47
47484;BMP280;54076;50.322;18.650;2023-08-21T09:32:20;170626.67;;;22.59
47484;BMP280;54076;50.322;18.650;2023-08-21T09:37:27;170896.69;;;22.80
47484;BMP280;54076;50.322;18.650;2023-08-21T09:42:30;171208.47;;;23.07
47484;BMP280;54076;50.322;18.650;2023-08-21T09:47:32;170730.39;;;22.66
47484;BMP280;54076;50.322;18.650;2023-08-21T09:52:35;170977.22;;;22.89
47484;BMP280;54076;50.322;18.650;2023-08-21T09:57:36;170912.28;;;22.86
47484;BMP280;54076;50.322;18.650;2023-08-21T10:02:38;170337.86;;;22.41
47484;BMP280;54076;50.322;18.650;2023-08-21T10:07:40;170377.59;;;22.43
47484;BMP280;54076;50.322;18.650;2023-08-21T10:12:43;170437.14;;;22.46
47484;BMP280;54076;50.322;18.650;2023-08-21T10:17:44;170254.92;;;22.31
47484;BMP280;54076;50.322;18.650;2023-08-21T10:22:47;170011.94;;;22.13
47484;BMP280;54076;50.322;18.650;2023-08-21T10:27:54;169956.72;;;22.09
47484;BMP280;54076;50.322;18.650;2023-08-21T10:32:57;169967.20;;;22.08
47484;BMP280;54076;50.322;18.650;2023-08-21T10:43:46;170227.66;;;22.28
47484;BMP280;54076;50.322;18.650;2023-08-21T10:48:47;170230.78;;;22.29
47484;BMP280;54076;50.322;18.650;2023-08-21T10:53:48;170164.59;;;22.22
47484;BMP280;54076;50.322;18.650;2023-08-21T10:58:50;170683.67;;;22.60
47484;BMP280;54076;50.322;18.650;2023-08-21T11:03:52;171728.72;;;23.54
47484;BMP280;54076;50.322;18.650;2023-08-21T11:08:52;171739.16;;;23.58
47484;BMP280;54076;50.322;18.650;2023-08-21T11:13:53;171555.75;;;23.38
47484;BMP280;54076;50.322;18.650;2023-08-21T11:18:55;171229.25;;;23.12
47484;BMP280;54076;50.322;18.650;2023-08-21T11:23:56;170922.25;;;22.85
47484;BMP280;54076;50.322;18.650;2023-08-21T11:28:57;171964.56;;;23.67
47484;BMP280;54076;50.322;18.650;2023-08-21T11:33:59;171685.33;;;23.55
47484;BMP280;54076;50.322;18.650;2023-08-21T11:39:02;172323.70;;;24.03
47484;BMP280;54076;50.322;18.650;2023-08-21T11:44:04;172428.88;;;24.17
47484;BMP280;54076;50.322;18.650;2023-08-21T11:49:05;173834.41;;;25.49
47484;BMP280;54076;50.322;18.650;2023-08-21T11:54:06;174866.36;;;26.59
47484;BMP280;54076;50.322;18.650;2023-08-21T11:59:07;174096.77;;;25.78
47484;BMP280;54076;50.322;18.650;2023-08-21T12:04:14;175223.03;;;27.01
47484;BMP280;54076;50.322;18.650;2023-08-21T12:09:19;175599.14;;;27.47
47484;BMP280;54076;50.322;18.650;2023-08-21T12:14:20;175455.03;;;27.28
47484;BMP280;54076;50.322;18.650;2023-08-21T12:19:24;175957.09;;;27.87
47484;BMP280;54076;50.322;18.650;2023-08-21T12:24:25;176536.36;;;28.54
47484;BMP280;54076;50.322;18.650;2023-08-21T12:29:26;176307.14;;;28.28
47484;BMP280;54076;50.322;18.650;2023-08-21T12:34:27;176682.45;;;28.73
47484;BMP280;54076;50.322;18.650;2023-08-21T12:39:28;177295.91;;;29.48
47484;BMP280;54076;50.322;18.650;2023-08-21T12:44:29;177163.47;;;29.31
47484;BMP280;54076;50.322;18.650;2023-08-21T12:49:30;177033.88;;;29.15
47484;BMP280;54076;50.322;18.650;2023-08-21T12:54:31;177407.97;;;29.61
47484;BMP280;54076;50.322;18.650;2023-08-21T12:59:32;176796.22;;;28.88
47484;BMP280;54076;50.322;18.650;2023-08-21T13:04:33;177346.75;;;29.55
47484;BMP280;54076;50.322;18.650;2023-08-21T13:09:33;177211.98;;;29.39
47484;BMP280;54076;50.322;18.650;2023-08-21T13:14:35;175995.47;;;27.94
47484;BMP280;54076;50.322;18.650;2023-08-21T13:19:36;177363.78;;;29.58
47484;BMP280;54076;50.322;18.650;2023-08-21T13:24:37;177013.72;;;29.16
47484;BMP280;54076;50.322;18.650;2023-08-21T13:29:38;177011.03;;;29.15
47484;BMP280;54076;50.322;18.650;2023-08-21T13:34:40;176296.89;;;28.30
47484;BMP280;54076;50.322;18.650;2023-08-21T13:39:41;176765.59;;;28.86
47484;BMP280;54076;50.322;18.650;2023-08-21T13:44:42;176165.38;;;28.17
47484;BMP280;54076;50.322;18.650;2023-08-21T13:49:43;175712.53;;;27.65
47484;BMP280;54076;50.322;18.650;2023-08-21T13:54:44;175972.83;;;27.94
47484;BMP280;54076;50.322;18.650;2023-08-21T13:59:45;175579.95;;;27.51
47484;BMP280;54076;50.322;18.650;2023-08-21T14:04:46;175315.02;;;27.18
47484;BMP280;54076;50.322;18.650;2023-08-21T14:09:47;175096.91;;;26.95
47484;BMP280;54076;50.322;18.650;2023-08-21T14:14:48;175416.22;;;27.30
47484;BMP280;54076;50.322;18.650;2023-08-21T14:19:49;175040.00;;;26.88
47484;BMP280;54076;50.322;18.650;2023-08-21T14:24:49;175065.11;;;26.89
47484;BMP280;54076;50.322;18.650;2023-08-21T14:29:50;175046.47;;;26.87
47484;BMP280;54076;50.322;18.650;2023-08-21T14:34:52;174717.00;;;26.51
47484;BMP280;54076;50.322;18.650;2023-08-21T14:39:54;174638.19;;;26.41
47484;BMP280;54076;50.322;18.650;2023-08-21T14:44:55;174604.59;;;26.40
47484;BMP280;54076;50.322;18.650;2023-08-21T14:49:56;174270.67;;;26.02
47484;BMP280;54076;50.322;18.650;2023-08-21T14:54:58;174240.56;;;26.02
47484;BMP280;54076;50.322;18.650;2023-08-21T14:59:59;174175.61;;;25.97
47484;BMP280;54076;50.322;18.650;2023-08-21T15:05:02;174060.88;;;25.84
47484;BMP280;54076;50.322;18.650;2023-08-21T15:10:06;173983.03;;;25.77
47484;BMP280;54076;50.322;18.650;2023-08-21T15:15:07;173824.03;;;25.62
47484;BMP280;54076;50.322;18.650;2023-08-21T15:20:09;173913.17;;;25.70
47484;BMP280;54076;50.322;18.650;2023-08-21T15:25:10;174008.83;;;25.81
47484;BMP280;54076;50.322;18.650;2023-08-21T15:30:12;174155.91;;;25.89
47484;BMP280;54076;50.322;18.650;2023-08-21T15:35:14;174297.03;;;26.05
47484;BMP280;54076;50.322;18.650;2023-08-21T15:40:16;174413.14;;;26.20
47484;BMP280;54076;50.322;18.650;2023-08-21T15:45:16;174927.23;;;26.73
47484;BMP280;54076;50.322;18.650;2023-08-21T15:50:17;174459.31;;;26.22
47484;BMP280;54076;50.322;18.650;2023-08-21T15:55:20;174599.31;;;26.38
47484;BMP280;54076;50.322;18.650;2023-08-21T16:00:21;174602.72;;;26.37
47484;BMP280;54076;50.322;18.650;2023-08-21T16:05:23;174483.88;;;26.25
47484;BMP280;54076;50.322;18.650;2023-08-21T16:10:24;174186.78;;;25.98
47484;BMP280;54076;50.322;18.650;2023-08-21T16:15:25;173649.08;;;25.49
47484;BMP280;54076;50.322;18.650;2023-08-21T16:20:26;173775.66;;;25.56
47484;BMP280;54076;50.322;18.650;2023-08-21T16:25:28;173701.55;;;25.48
47484;BMP280;54076;50.322;18.650;2023-08-21T16:30:29;173809.03;;;25.61
47484;BMP280;54076;50.322;18.650;2023-08-21T16:35:30;173746.00;;;25.57
47484;BMP280;54076;50.322;18.650;2023-08-21T16:40:31;173450.84;;;25.23
47484;BMP280;54076;50.322;18.650;2023-08-21T16:45:33;173375.47;;;25.18
47484;BMP280;54076;50.322;18.650;2023-08-21T16:50:34;173074.30;;;24.89
47484;BMP280;54076;50.322;18.650;2023-08-21T16:55:34;173042.22;;;24.84
47484;BMP280;54076;50.322;18.650;2023-08-21T17:00:35;173148.20;;;24.94
47484;BMP280;54076;50.322;18.650;2023-08-21T17:05:36;174504.45;;;26.23
47484;BMP280;54076;50.322;18.650;2023-08-21T17:10:37;174858.08;;;26.62
47484;BMP280;54076;50.322;18.650;2023-08-21T17:15:38;175127.63;;;26.95
47484;BMP280;54076;50.322;18.650;2023-08-21T17:20:39;174916.30;;;26.70
47484;BMP280;54076;50.322;18.650;2023-08-21T17:25:40;174823.73;;;26.61
47484;BMP280;54076;50.322;18.650;2023-08-21T17:30:41;174268.16;;;26.01
47484;BMP280;54076;50.322;18.650;2023-08-21T17:35:42;173621.41;;;25.40
47484;BMP280;54076;50.322;18.650;2023-08-21T17:40:43;172497.16;;;24.41
47484;BMP280;54076;50.322;18.650;2023-08-21T17:45:45;171535.98;;;23.56
47484;BMP280;54076;50.322;18.650;2023-08-21T17:50:46;171277.56;;;23.34
47484;BMP280;54076;50.322;18.650;2023-08-21T17:55:47;170883.53;;;23.01
47484;BMP280;54076;50.322;18.650;2023-08-21T18:00:48;170449.33;;;22.64
47484;BMP280;54076;50.322;18.650;2023-08-21T18:05:49;170115.05;;;22.36
47484;BMP280;54076;50.322;18.650;2023-08-21T18:10:50;169909.47;;;22.19
47484;BMP280;54076;50.322;18.650;2023-08-21T18:15:51;169709.59;;;22.03
47484;BMP280;54076;50.322;18.650;2023-08-21T18:20:54;169424.67;;;21.79
47484;BMP280;54076;50.322;18.650;2023-08-21T18:25:56;169280.41;;;21.69
47484;BMP280;54076;50.322;18.650;2023-08-21T18:30:59;169035.22;;;21.50
47484;BMP280;54076;50.322;18.650;2023-08-21T18:36:00;168732.39;;;21.27
47484;BMP280;54076;50.322;18.650;2023-08-21T18:41:01;168731.25;;;21.26
47484;BMP280;54076;50.322;18.650;2023-08-21T18:46:03;168684.05;;;21.23
47484;BMP280;54076;50.322;18.650;2023-08-21T18:51:03;168408.61;;;21.02
47484;BMP280;54076;50.322;18.650;2023-08-21T18:56:04;168266.97;;;20.90
47484;BMP280;54076;50.322;18.650;2023-08-21T19:01:06;168201.03;;;20.85
47484;BMP280;54076;50.322;18.650;2023-08-21T19:06:07;168083.59;;;20.73
47484;BMP280;54076;50.322;18.650;2023-08-21T19:11:07;167965.19;;;20.61
47484;BMP280;54076;50.322;18.650;2023-08-21T19:16:08;168055.06;;;20.70
47484;BMP280;54076;50.322;18.650;2023-08-21T19:21:09;167877.39;;;20.53
47484;BMP280;54076;50.322;18.650;2023-08-21T19:26:12;167653.94;;;20.33
47484;BMP280;54076;50.322;18.650;2023-08-21T19:31:13;167504.91;;;20.17
47484;BMP280;54076;50.322;18.650;2023-08-21T19:36:15;167502.16;;;20.17
47484;BMP280;54076;50.322;18.650;2023-08-21T19:41:17;167363.59;;;20.03
47484;BMP280;54076;50.322;18.650;2023-08-21T19:46:18;167495.23;;;20.17
47484;BMP280;54076;50.322;18.650;2023-08-21T19:51:19;167420.22;;;20.08
47484;BMP280;54076;50.322;18.650;2023-08-21T19:56:20;167374.56;;;20.04
47484;BMP280;54076;50.322;18.650;2023-08-21T20:01:30;167068.00;;;19.79
47484;BMP280;54076;50.322;18.650;2023-08-21T20:06:37;166708.08;;;19.55
47484;BMP280;54076;50.322;18.650;2023-08-21T20:11:40;166738.16;;;19.57
47484;BMP280;54076;50.322;18.650;2023-08-21T20:16:47;166738.03;;;19.57
47484;BMP280;54076;50.322;18.650;2023-08-21T20:22:01;166518.13;;;19.43
47484;BMP280;54076;50.322;18.650;2023-08-21T20:27:02;166300.69;;;19.29
47484;BMP280;54076;50.322;18.650;2023-08-21T20:32:04;165975.20;;;19.06
47484;BMP280;54076;50.322;18.650;2023-08-21T20:37:05;165891.78;;;19.01
47484;BMP280;54076;50.322;18.650;2023-08-21T20:42:06;165860.58;;;18.99
47484;BMP280;54076;50.322;18.650;2023-08-21T20:47:07;165861.22;;;18.99
47484;BMP280;54076;50.322;18.650;2023-08-21T20:52:07;165567.27;;;18.78
47484;BMP280;54076;50.322;18.650;2023-08-21T20:57:08;165551.17;;;18.77
47484;BMP280;54076;50.322;18.650;2023-08-21T21:02:09;165333.72;;;18.64
47484;BMP280;54076;50.322;18.650;2023-08-21T21:07:11;165291.45;;;18.61
47484;BMP280;54076;50.322;18.650;2023-08-21T21:12:14;165269.59;;;18.60
47484;BMP280;54076;50.322;18.650;2023-08-21T21:17:17;165385.05;;;18.67
47484;BMP280;54076;50.322;18.650;2023-08-21T21:22:17;165130.34;;;18.50
47484;BMP280;54076;50.322;18.650;2023-08-21T21:27:18;165191.30;;;18.55
47484;BMP280;54076;50.322;18.650;2023-08-21T21:32:19;165074.59;;;18.47
47484;BMP280;54076;50.322;18.650;2023-08-21T21:37:20;164866.00;;;18.34
47484;BMP280;54076;50.322;18.650;2023-08-21T21:42:21;164817.05;;;18.30
47484;BMP280;54076;50.322;18.650;2023-08-21T21:47:22;164388.84;;;18.03
47484;BMP280;54076;50.322;18.650;2023-08-21T21:52:23;164217.47;;;17.92
47484;BMP280;54076;50.322;18.650;2023-08-21T21:57:24;164321.88;;;17.99
47484;BMP280;54076;50.322;18.650;2023-08-21T22:02:25;163769.34;;;17.64
47484;BMP280;54076;50.322;18.650;2023-08-21T22:07:26;163744.28;;;17.62
47484;BMP280;54076;50.322;18.650;2023-08-21T22:12:27;163877.70;;;17.70
47484;BMP280;54076;50.322;18.650;2023-08-21T22:17:28;163964.72;;;17.75
47484;BMP280;54076;50.322;18.650;2023-08-21T22:23:09;164086.02;;;17.83
47484;BMP280;54076;50.322;18.650;2023-08-21T22:28:11;163893.98;;;17.71
47484;BMP280;54076;50.322;18.650;2023-08-21T22:33:12;163648.11;;;17.57
47484;BMP280;54076;50.322;18.650;2023-08-21T22:38:15;163907.53;;;17.73
47484;BMP280;54076;50.322;18.650;2023-08-21T22:43:16;164238.47;;;17.93
47484;BMP280;54076;50.322;18.650;2023-08-21T22:48:17;164027.97;;;17.79
47484;BMP280;54076;50.322;18.650;2023-08-21T22:53:18;163998.58;;;17.78
47484;BMP280;54076;50.322;18.650;2023-08-21T22:58:22;163880.08;;;17.71
47484;BMP280;54076;50.322;18.650;2023-08-21T23:03:23;163429.91;;;17.43
47484;BMP280;54076;50.322;18.650;2023-08-21T23:08:25;163647.47;;;17.57
47484;BMP280;54076;50.322;18.650;2023-08-21T23:13:26;163749.91;;;17.63
47484;BMP280;54076;50.322;18.650;2023-08-21T23:18:27;163646.03;;;17.56
47484;BMP280;54076;50.322;18.650;2023-08-21T23:23:28;163378.02;;;17.40
47484;BMP280;54076;50.322;18.650;2023-08-21T23:28:29;163362.78;;;17.39
47484;BMP280;54076;50.322;18.650;2023-08-21T23:33:30;163188.59;;;17.29
47484;BMP280;54076;50.322;18.650;2023-08-21T23:38:31;163305.22;;;17.35
47484;BMP280;54076;50.322;18.650;2023-08-21T23:43:32;163640.53;;;17.56
47484;BMP280;54076;50.322;18.650;2023-08-21T23:48:34;163702.28;;;17.59
47484;BMP280;54076;50.322;18.650;2023-08-21T23:53:35;163461.13;;;17.45
47484;BMP280;54076;50.322;18.650;2023-08-21T23:58:37;163582.14;;;17.52
